sensor_id;sensor_type;location;lat;lon;timestamp;P1;durP1;ratioP1;P2;durP2;ratioP2
48552;SDS011;34335;51.566;6.994;2023-04-15T00:01:58;5.80;;;2.72;;
48552;SDS011;34335;51.566;6.994;2023-04-15T00:04:24;6.95;;;2.75;;
48552;SDS011;34335;51.566;6.994;2023-04-15T00:06:52;5.22;;;2.70;;
48552;SDS011;34335;51.566;6.994;2023-04-15T00:09:18;6.85;;;2.90;;
48552;SDS011;34335;51.566;6.994;2023-04-15T00:11:44;4.95;;;2.53;;
48552;SDS011;34335;51.566;6.994;2023-04-15T00:14:11;5.38;;;2.60;;
48552;SDS011;34335;51.566;6.994;2023-04-15T00:16:36;7.32;;;2.92;;
48552;SDS011;34335;51.566;6.994;2023-04-15T00:19:02;5.20;;;2.45;;
48552;SDS011;34335;51.566;6.994;2023-04-15T00:21:27;4.55;;;2.67;;
48552;SDS011;34335;51.566;6.994;2023-04-15T00:23:53;5.63;;;2.78;;
48552;SDS011;34335;51.566;6.994;2023-04-15T00:26:18;10.13;;;2.20;;
48552;SDS011;34335;51.566;6.994;2023-04-15T00:28:44;6.10;;;2.67;;
48552;SDS011;34335;51.566;6.994;2023-04-15T00:31:10;6.10;;;2.63;;
48552;SDS011;34335;51.566;6.994;2023-04-15T00:33:35;5.32;;;2.55;;
48552;SDS011;34335;51.566;6.994;2023-04-15T00:36:01;5.88;;;2.63;;
48552;SDS011;34335;51.566;6.994;2023-04-15T00:38:27;5.32;;;2.30;;
48552;SDS011;34335;51.566;6.994;2023-04-15T00:40:53;4.68;;;2.45;;
48552;SDS011;34335;51.566;6.994;2023-04-15T00:43:19;5.68;;;2.67;;
48552;SDS011;34335;51.566;6.994;2023-04-15T00:45:44;6.78;;;3.15;;
48552;SDS011;34335;51.566;6.994;2023-04-15T00:48:11;5.25;;;2.58;;
48552;SDS011;34335;51.566;6.994;2023-04-15T00:50:36;6.03;;;2.63;;
48552;SDS011;34335;51.566;6.994;2023-04-15T00:53:02;5.95;;;2.45;;
48552;SDS011;34335;51.566;6.994;2023-04-15T00:55:27;6.60;;;2.65;;
48552;SDS011;34335;51.566;6.994;2023-04-15T00:57:52;5.50;;;2.45;;
48552;SDS011;34335;51.566;6.994;2023-04-15T01:00:19;6.40;;;2.70;;
48552;SDS011;34335;51.566;6.994;2023-04-15T01:02:44;4.75;;;2.67;;
48552;SDS011;34335;51.566;6.994;2023-04-15T01:05:10;4.80;;;2.85;;
48552;SDS011;34335;51.566;6.994;2023-04-15T01:07:35;6.05;;;2.47;;
48552;SDS011;34335;51.566;6.994;2023-04-15T01:10:02;5.03;;;2.53;;
48552;SDS011;34335;51.566;6.994;2023-04-15T01:12:28;8.32;;;3.90;;
48552;SDS011;34335;51.566;6.994;2023-04-15T01:14:56;5.85;;;2.83;;
48552;SDS011;34335;51.566;6.994;2023-04-15T01:17:21;4.00;;;2.40;;
48552;SDS011;34335;51.566;6.994;2023-04-15T01:19:48;5.88;;;2.65;;
48552;SDS011;34335;51.566;6.994;2023-04-15T01:22:14;4.28;;;2.08;;
48552;SDS011;34335;51.566;6.994;2023-04-15T01:24:40;4.93;;;2.30;;
48552;SDS011;34335;51.566;6.994;2023-04-15T01:27:05;5.90;;;3.08;;
48552;SDS011;34335;51.566;6.994;2023-04-15T01:29:31;8.73;;;2.08;;
48552;SDS011;34335;51.566;6.994;2023-04-15T01:31:57;7.70;;;2.45;;
48552;SDS011;34335;51.566;6.994;2023-04-15T01:34:22;5.25;;;2.22;;
48552;SDS011;34335;51.566;6.994;2023-04-15T01:36:47;3.95;;;1.90;;
48552;SDS011;34335;51.566;6.994;2023-04-15T01:39:13;5.17;;;2.67;;
48552;SDS011;34335;51.566;6.994;2023-04-15T01:41:39;6.53;;;2.42;;
48552;SDS011;34335;51.566;6.994;2023-04-15T01:44:04;4.13;;;2.25;;
48552;SDS011;34335;51.566;6.994;2023-04-15T01:46:31;4.57;;;2.35;;
48552;SDS011;34335;51.566;6.994;2023-04-15T01:48:56;5.63;;;2.22;;
48552;SDS011;34335;51.566;6.994;2023-04-15T01:51:22;4.60;;;2.10;;
48552;SDS011;34335;51.566;6.994;2023-04-15T01:53:47;4.30;;;2.10;;
48552;SDS011;34335;51.566;6.994;2023-04-15T01:56:12;5.20;;;2.23;;
48552;SDS011;34335;51.566;6.994;2023-04-15T01:58:38;7.65;;;3.22;;
48552;SDS011;34335;51.566;6.994;2023-04-15T02:01:04;6.13;;;2.95;;
48552;SDS011;34335;51.566;6.994;2023-04-15T02:03:30;4.43;;;2.28;;
48552;SDS011;34335;51.566;6.994;2023-04-15T02:05:55;4.80;;;2.28;;
48552;SDS011;34335;51.566;6.994;2023-04-15T02:08:20;4.30;;;2.70;;
48552;SDS011;34335;51.566;6.994;2023-04-15T02:10:46;6.68;;;2.65;;
48552;SDS011;34335;51.566;6.994;2023-04-15T02:13:12;4.78;;;2.67;;
48552;SDS011;34335;51.566;6.994;2023-04-15T02:15:37;4.95;;;2.15;;
48552;SDS011;34335;51.566;6.994;2023-04-15T02:18:03;5.70;;;2.50;;
48552;SDS011;34335;51.566;6.994;2023-04-15T02:20:28;5.05;;;2.22;;
48552;SDS011;34335;51.566;6.994;2023-04-15T02:22:57;5.22;;;2.55;;
48552;SDS011;34335;51.566;6.994;2023-04-15T02:25:22;11.70;;;3.43;;
48552;SDS011;34335;51.566;6.994;2023-04-15T02:27:47;7.75;;;3.38;;
48552;SDS011;34335;51.566;6.994;2023-04-15T02:30:13;4.78;;;2.22;;
48552;SDS011;34335;51.566;6.994;2023-04-15T02:32:39;5.13;;;2.10;;
48552;SDS011;34335;51.566;6.994;2023-04-15T02:35:04;5.55;;;2.30;;
48552;SDS011;34335;51.566;6.994;2023-04-15T02:37:31;2.55;;;1.35;;
48552;SDS011;34335;51.566;6.994;2023-04-15T02:40:00;4.90;;;1.80;;
48552;SDS011;34335;51.566;6.994;2023-04-15T02:42:26;5.70;;;2.40;;
48552;SDS011;34335;51.566;6.994;2023-04-15T02:44:54;9.75;;;2.65;;
48552;SDS011;34335;51.566;6.994;2023-04-15T02:47:19;4.00;;;2.20;;
48552;SDS011;34335;51.566;6.994;2023-04-15T02:49:45;6.70;;;2.33;;
48552;SDS011;34335;51.566;6.994;2023-04-15T02:52:10;5.65;;;3.03;;
48552;SDS011;34335;51.566;6.994;2023-04-15T02:54:35;4.47;;;2.07;;
48552;SDS011;34335;51.566;6.994;2023-04-15T02:57:01;3.35;;;1.98;;
48552;SDS011;34335;51.566;6.994;2023-04-15T02:59:26;3.50;;;1.85;;
48552;SDS011;34335;51.566;6.994;2023-04-15T03:01:51;5.00;;;2.45;;
48552;SDS011;34335;51.566;6.994;2023-04-15T03:04:17;5.90;;;2.30;;
48552;SDS011;34335;51.566;6.994;2023-04-15T03:06:42;6.30;;;2.57;;
48552;SDS011;34335;51.566;6.994;2023-04-15T03:09:07;4.07;;;2.20;;
48552;SDS011;34335;51.566;6.994;2023-04-15T03:11:33;4.70;;;2.33;;
48552;SDS011;34335;51.566;6.994;2023-04-15T03:14:00;5.47;;;3.13;;
48552;SDS011;34335;51.566;6.994;2023-04-15T03:16:26;6.30;;;2.40;;
48552;SDS011;34335;51.566;6.994;2023-04-15T03:18:51;3.17;;;1.75;;
48552;SDS011;34335;51.566;6.994;2023-04-15T03:21:16;5.67;;;2.27;;
48552;SDS011;34335;51.566;6.994;2023-04-15T03:23:43;4.25;;;2.65;;
48552;SDS011;34335;51.566;6.994;2023-04-15T03:26:08;2.67;;;1.47;;
48552;SDS011;34335;51.566;6.994;2023-04-15T03:28:33;7.37;;;3.27;;
48552;SDS011;34335;51.566;6.994;2023-04-15T03:30:59;4.03;;;2.00;;
48552;SDS011;34335;51.566;6.994;2023-04-15T03:33:24;3.53;;;2.05;;
48552;SDS011;34335;51.566;6.994;2023-04-15T03:35:50;5.50;;;2.20;;
48552;SDS011;34335;51.566;6.994;2023-04-15T03:38:16;5.05;;;2.40;;
48552;SDS011;34335;51.566;6.994;2023-04-15T03:40:41;6.70;;;2.78;;
48552;SDS011;34335;51.566;6.994;2023-04-15T03:43:07;4.75;;;2.63;;
48552;SDS011;34335;51.566;6.994;2023-04-15T03:45:32;5.63;;;2.20;;
48552;SDS011;34335;51.566;6.994;2023-04-15T03:47:57;5.07;;;2.45;;
48552;SDS011;34335;51.566;6.994;2023-04-15T03:50:23;4.22;;;2.40;;
48552;SDS011;34335;51.566;6.994;2023-04-15T03:52:48;5.32;;;2.58;;
48552;SDS011;34335;51.566;6.994;2023-04-15T03:55:13;8.15;;;3.17;;
48552;SDS011;34335;51.566;6.994;2023-04-15T03:57:39;6.57;;;3.65;;
48552;SDS011;34335;51.566;6.994;2023-04-15T04:00:05;6.88;;;2.67;;
48552;SDS011;34335;51.566;6.994;2023-04-15T04:02:30;4.40;;;2.35;;
48552;SDS011;34335;51.566;6.994;2023-04-15T04:04:55;4.35;;;2.33;;
48552;SDS011;34335;51.566;6.994;2023-04-15T04:07:22;6.37;;;2.67;;
48552;SDS011;34335;51.566;6.994;2023-04-15T04:09:48;4.82;;;2.28;;
48552;SDS011;34335;51.566;6.994;2023-04-15T04:12:13;7.50;;;2.85;;
48552;SDS011;34335;51.566;6.994;2023-04-15T04:14:38;6.05;;;2.45;;
48552;SDS011;34335;51.566;6.994;2023-04-15T04:17:04;6.97;;;2.83;;
48552;SDS011;34335;51.566;6.994;2023-04-15T04:19:29;10.57;;;2.65;;
48552;SDS011;34335;51.566;6.994;2023-04-15T04:21:55;5.00;;;2.83;;
48552;SDS011;34335;51.566;6.994;2023-04-15T04:24:20;6.15;;;2.28;;
48552;SDS011;34335;51.566;6.994;2023-04-15T04:26:45;4.47;;;2.30;;
48552;SDS011;34335;51.566;6.994;2023-04-15T04:29:11;7.65;;;2.67;;
48552;SDS011;34335;51.566;6.994;2023-04-15T04:31:36;4.88;;;1.80;;
48552;SDS011;34335;51.566;6.994;2023-04-15T04:34:01;4.88;;;2.40;;
48552;SDS011;34335;51.566;6.994;2023-04-15T04:36:27;3.97;;;2.03;;
48552;SDS011;34335;51.566;6.994;2023-04-15T04:38:52;5.13;;;2.90;;
48552;SDS011;34335;51.566;6.994;2023-04-15T04:41:17;2.90;;;1.63;;
48552;SDS011;34335;51.566;6.994;2023-04-15T04:43:42;5.95;;;2.70;;
48552;SDS011;34335;51.566;6.994;2023-04-15T04:46:08;5.40;;;2.22;;
48552;SDS011;34335;51.566;6.994;2023-04-15T04:48:34;5.85;;;2.70;;
48552;SDS011;34335;51.566;6.994;2023-04-15T04:50:59;6.63;;;2.43;;
48552;SDS011;34335;51.566;6.994;2023-04-15T04:53:24;4.07;;;1.85;;
48552;SDS011;34335;51.566;6.994;2023-04-15T04:55:50;5.05;;;2.35;;
48552;SDS011;34335;51.566;6.994;2023-04-15T04:58:15;6.20;;;3.15;;
48552;SDS011;34335;51.566;6.994;2023-04-15T05:00:41;4.63;;;2.77;;
48552;SDS011;34335;51.566;6.994;2023-04-15T05:03:06;6.10;;;2.92;;
48552;SDS011;34335;51.566;6.994;2023-04-15T05:05:32;4.88;;;2.72;;
48552;SDS011;34335;51.566;6.994;2023-04-15T05:07:57;6.25;;;3.63;;
48552;SDS011;34335;51.566;6.994;2023-04-15T05:10:22;5.00;;;2.50;;
48552;SDS011;34335;51.566;6.994;2023-04-15T05:12:47;6.47;;;2.70;;
48552;SDS011;34335;51.566;6.994;2023-04-15T05:15:13;6.90;;;2.88;;
48552;SDS011;34335;51.566;6.994;2023-04-15T05:17:38;6.33;;;2.87;;
48552;SDS011;34335;51.566;6.994;2023-04-15T05:20:03;5.80;;;3.45;;
48552;SDS011;34335;51.566;6.994;2023-04-15T05:22:29;5.25;;;2.70;;
48552;SDS011;34335;51.566;6.994;2023-04-15T05:24:54;7.65;;;3.10;;
48552;SDS011;34335;51.566;6.994;2023-04-15T05:27:20;7.90;;;3.38;;
48552;SDS011;34335;51.566;6.994;2023-04-15T05:29:46;10.25;;;3.05;;
48552;SDS011;34335;51.566;6.994;2023-04-15T05:32:11;8.90;;;3.47;;
48552;SDS011;34335;51.566;6.994;2023-04-15T05:34:37;5.63;;;2.63;;
48552;SDS011;34335;51.566;6.994;2023-04-15T05:37:02;5.83;;;3.13;;
48552;SDS011;34335;51.566;6.994;2023-04-15T05:39:27;6.90;;;3.37;;
48552;SDS011;34335;51.566;6.994;2023-04-15T05:41:52;6.88;;;3.20;;
48552;SDS011;34335;51.566;6.994;2023-04-15T05:44:18;7.15;;;3.58;;
48552;SDS011;34335;51.566;6.994;2023-04-15T05:46:43;8.25;;;3.70;;
48552;SDS011;34335;51.566;6.994;2023-04-15T05:49:08;5.93;;;2.70;;
48552;SDS011;34335;51.566;6.994;2023-04-15T05:51:34;8.03;;;3.43;;
48552;SDS011;34335;51.566;6.994;2023-04-15T05:54:00;12.75;;;3.58;;
48552;SDS011;34335;51.566;6.994;2023-04-15T05:56:25;7.70;;;2.95;;
48552;SDS011;34335;51.566;6.994;2023-04-15T05:58:51;6.35;;;3.42;;
48552;SDS011;34335;51.566;6.994;2023-04-15T06:01:16;6.85;;;3.45;;
48552;SDS011;34335;51.566;6.994;2023-04-15T06:03:41;7.82;;;3.63;;
48552;SDS011;34335;51.566;6.994;2023-04-15T06:06:07;7.65;;;3.78;;
48552;SDS011;34335;51.566;6.994;2023-04-15T06:08:32;8.15;;;3.20;;
48552;SDS011;34335;51.566;6.994;2023-04-15T06:10:59;8.23;;;4.10;;
48552;SDS011;34335;51.566;6.994;2023-04-15T06:13:24;7.80;;;3.90;;
48552;SDS011;34335;51.566;6.994;2023-04-15T06:15:50;6.63;;;3.20;;
48552;SDS011;34335;51.566;6.994;2023-04-15T06:18:15;9.25;;;3.80;;
48552;SDS011;34335;51.566;6.994;2023-04-15T06:20:40;5.30;;;2.50;;
48552;SDS011;34335;51.566;6.994;2023-04-15T06:23:05;8.75;;;3.88;;
48552;SDS011;34335;51.566;6.994;2023-04-15T06:25:31;8.60;;;3.07;;
48552;SDS011;34335;51.566;6.994;2023-04-15T06:27:56;6.65;;;3.53;;
48552;SDS011;34335;51.566;6.994;2023-04-15T06:30:21;6.35;;;3.15;;
48552;SDS011;34335;51.566;6.994;2023-04-15T06:32:47;5.45;;;2.63;;
48552;SDS011;34335;51.566;6.994;2023-04-15T06:35:12;6.95;;;3.17;;
48552;SDS011;34335;51.566;6.994;2023-04-15T06:37:37;9.05;;;3.85;;
48552;SDS011;34335;51.566;6.994;2023-04-15T06:40:03;5.40;;;2.40;;
48552;SDS011;34335;51.566;6.994;2023-04-15T06:42:29;6.18;;;3.38;;
48552;SDS011;34335;51.566;6.994;2023-04-15T06:44:55;8.18;;;3.00;;
48552;SDS011;34335;51.566;6.994;2023-04-15T06:47:20;5.57;;;3.03;;
48552;SDS011;34335;51.566;6.994;2023-04-15T06:49:46;6.28;;;3.05;;
48552;SDS011;34335;51.566;6.994;2023-04-15T06:52:11;2.80;;;1.27;;
48552;SDS011;34335;51.566;6.994;2023-04-15T06:54:37;3.92;;;1.92;;
48552;SDS011;34335;51.566;6.994;2023-04-15T06:57:02;7.60;;;3.38;;
48552;SDS011;34335;51.566;6.994;2023-04-15T06:59:27;5.28;;;2.97;;
48552;SDS011;34335;51.566;6.994;2023-04-15T07:01:52;3.70;;;1.77;;
48552;SDS011;34335;51.566;6.994;2023-04-15T07:04:18;10.40;;;4.20;;
48552;SDS011;34335;51.566;6.994;2023-04-15T07:06:44;5.07;;;2.90;;
48552;SDS011;34335;51.566;6.994;2023-04-15T07:09:10;7.35;;;3.42;;
48552;SDS011;34335;51.566;6.994;2023-04-15T07:11:35;6.63;;;2.72;;
48552;SDS011;34335;51.566;6.994;2023-04-15T07:14:00;7.38;;;2.60;;
48552;SDS011;34335;51.566;6.994;2023-04-15T07:16:26;4.60;;;2.67;;
48552;SDS011;34335;51.566;6.994;2023-04-15T07:18:51;8.75;;;2.78;;
48552;SDS011;34335;51.566;6.994;2023-04-15T07:21:17;6.97;;;2.90;;
48552;SDS011;34335;51.566;6.994;2023-04-15T07:23:42;5.78;;;2.85;;
48552;SDS011;34335;51.566;6.994;2023-04-15T07:26:08;5.13;;;2.42;;
48552;SDS011;34335;51.566;6.994;2023-04-15T07:28:33;5.45;;;3.00;;
48552;SDS011;34335;51.566;6.994;2023-04-15T07:30:58;5.13;;;2.50;;
48552;SDS011;34335;51.566;6.994;2023-04-15T07:33:24;2.20;;;1.20;;
48552;SDS011;34335;51.566;6.994;2023-04-15T07:35:49;4.10;;;2.05;;
48552;SDS011;34335;51.566;6.994;2023-04-15T07:38:15;6.18;;;2.75;;
48552;SDS011;34335;51.566;6.994;2023-04-15T07:40:40;4.53;;;2.28;;
48552;SDS011;34335;51.566;6.994;2023-04-15T07:43:06;3.95;;;1.52;;
48552;SDS011;34335;51.566;6.994;2023-04-15T07:45:31;5.35;;;1.20;;
48552;SDS011;34335;51.566;6.994;2023-04-15T07:47:57;4.38;;;2.20;;
48552;SDS011;34335;51.566;6.994;2023-04-15T07:50:22;4.60;;;2.47;;
48552;SDS011;34335;51.566;6.994;2023-04-15T07:52:48;4.20;;;2.30;;
48552;SDS011;34335;51.566;6.994;2023-04-15T07:55:15;5.85;;;3.20;;
48552;SDS011;34335;51.566;6.994;2023-04-15T07:57:43;6.95;;;3.13;;
48552;SDS011;34335;51.566;6.994;2023-04-15T08:00:08;4.88;;;2.65;;
48552;SDS011;34335;51.566;6.994;2023-04-15T08:02:35;7.30;;;2.40;;
48552;SDS011;34335;51.566;6.994;2023-04-15T08:05:01;3.28;;;1.60;;
48552;SDS011;34335;51.566;6.994;2023-04-15T08:07:28;3.50;;;1.85;;
48552;SDS011;34335;51.566;6.994;2023-04-15T08:09:53;3.35;;;1.48;;
48552;SDS011;34335;51.566;6.994;2023-04-15T08:12:19;3.20;;;1.40;;
48552;SDS011;34335;51.566;6.994;2023-04-15T08:14:44;3.17;;;1.85;;
48552;SDS011;34335;51.566;6.994;2023-04-15T08:17:09;2.47;;;1.30;;
48552;SDS011;34335;51.566;6.994;2023-04-15T08:19:35;4.10;;;1.80;;
48552;SDS011;34335;51.566;6.994;2023-04-15T08:22:00;7.63;;;2.30;;
48552;SDS011;34335;51.566;6.994;2023-04-15T08:24:25;2.10;;;1.10;;
48552;SDS011;34335;51.566;6.994;2023-04-15T08:26:51;4.63;;;2.03;;
48552;SDS011;34335;51.566;6.994;2023-04-15T08:29:17;3.65;;;1.95;;
48552;SDS011;34335;51.566;6.994;2023-04-15T08:31:42;6.80;;;2.35;;
48552;SDS011;34335;51.566;6.994;2023-04-15T08:34:07;5.85;;;1.55;;
48552;SDS011;34335;51.566;6.994;2023-04-15T08:36:33;4.45;;;1.60;;
48552;SDS011;34335;51.566;6.994;2023-04-15T08:38:58;2.50;;;1.60;;
48552;SDS011;34335;51.566;6.994;2023-04-15T08:41:26;3.63;;;2.20;;
48552;SDS011;34335;51.566;6.994;2023-04-15T08:44:03;7.45;;;1.88;;
48552;SDS011;34335;51.566;6.994;2023-04-15T08:46:29;4.95;;;2.22;;
48552;SDS011;34335;51.566;6.994;2023-04-15T08:48:56;4.35;;;1.75;;
48552;SDS011;34335;51.566;6.994;2023-04-15T08:51:22;4.35;;;1.70;;
48552;SDS011;34335;51.566;6.994;2023-04-15T08:53:48;3.90;;;2.42;;
48552;SDS011;34335;51.566;6.994;2023-04-15T08:56:14;3.55;;;1.65;;
48552;SDS011;34335;51.566;6.994;2023-04-15T08:58:40;5.35;;;2.42;;
48552;SDS011;34335;51.566;6.994;2023-04-15T09:01:07;5.10;;;2.03;;
48552;SDS011;34335;51.566;6.994;2023-04-15T09:03:33;5.57;;;2.58;;
48552;SDS011;34335;51.566;6.994;2023-04-15T09:05:58;6.25;;;2.33;;
48552;SDS011;34335;51.566;6.994;2023-04-15T09:08:24;4.32;;;2.03;;
48552;SDS011;34335;51.566;6.994;2023-04-15T09:10:49;3.37;;;1.60;;
48552;SDS011;34335;51.566;6.994;2023-04-15T09:13:15;1.45;;;0.82;;
48552;SDS011;34335;51.566;6.994;2023-04-15T09:15:40;4.85;;;2.45;;
48552;SDS011;34335;51.566;6.994;2023-04-15T09:18:06;8.07;;;2.90;;
48552;SDS011;34335;51.566;6.994;2023-04-15T09:20:37;4.10;;;1.95;;
48552;SDS011;34335;51.566;6.994;2023-04-15T09:23:10;6.90;;;2.70;;
48552;SDS011;34335;51.566;6.994;2023-04-15T09:25:37;4.43;;;2.35;;
48552;SDS011;34335;51.566;6.994;2023-04-15T09:28:06;4.97;;;2.03;;
48552;SDS011;34335;51.566;6.994;2023-04-15T09:30:32;3.05;;;1.77;;
48552;SDS011;34335;51.566;6.994;2023-04-15T09:32:58;2.00;;;1.20;;
48552;SDS011;34335;51.566;6.994;2023-04-15T09:35:26;3.70;;;1.90;;
48552;SDS011;34335;51.566;6.994;2023-04-15T09:37:52;3.70;;;2.13;;
48552;SDS011;34335;51.566;6.994;2023-04-15T09:43:16;0.73;;;0.63;;
48552;SDS011;34335;51.566;6.994;2023-04-15T09:50:47;4.97;;;1.73;;
48552;SDS011;34335;51.566;6.994;2023-04-15T09:53:17;2.75;;;1.50;;
48552;SDS011;34335;51.566;6.994;2023-04-15T09:55:52;4.18;;;1.83;;
48552;SDS011;34335;51.566;6.994;2023-04-15T09:58:19;4.05;;;1.70;;
48552;SDS011;34335;51.566;6.994;2023-04-15T10:00:49;5.10;;;2.50;;
48552;SDS011;34335;51.566;6.994;2023-04-15T10:03:25;3.17;;;1.60;;
48552;SDS011;34335;51.566;6.994;2023-04-15T10:05:59;1.95;;;1.17;;
48552;SDS011;34335;51.566;6.994;2023-04-15T10:08:26;4.90;;;2.17;;
48552;SDS011;34335;51.566;6.994;2023-04-15T10:10:53;3.95;;;2.35;;
48552;SDS011;34335;51.566;6.994;2023-04-15T10:13:25;4.32;;;1.60;;
48552;SDS011;34335;51.566;6.994;2023-04-15T10:18:27;4.43;;;2.10;;
48552;SDS011;34335;51.566;6.994;2023-04-15T10:20:56;4.38;;;2.00;;
48552;SDS011;34335;51.566;6.994;2023-04-15T10:23:23;5.80;;;2.83;;
48552;SDS011;34335;51.566;6.994;2023-04-15T10:25:50;3.30;;;1.95;;
48552;SDS011;34335;51.566;6.994;2023-04-15T10:28:17;3.42;;;2.03;;
48552;SDS011;34335;51.566;6.994;2023-04-15T10:30:44;3.63;;;1.73;;
48552;SDS011;34335;51.566;6.994;2023-04-15T10:33:11;3.00;;;1.20;;
48552;SDS011;34335;51.566;6.994;2023-04-15T10:35:38;2.92;;;1.73;;
48552;SDS011;34335;51.566;6.994;2023-04-15T10:38:30;6.38;;;1.95;;
48552;SDS011;34335;51.566;6.994;2023-04-15T10:41:11;5.00;;;1.67;;
48552;SDS011;34335;51.566;6.994;2023-04-15T10:43:38;3.42;;;1.80;;
48552;SDS011;34335;51.566;6.994;2023-04-15T10:46:04;5.32;;;2.47;;
48552;SDS011;34335;51.566;6.994;2023-04-15T10:48:30;3.25;;;1.90;;
48552;SDS011;34335;51.566;6.994;2023-04-15T10:50:56;3.65;;;1.50;;
48552;SDS011;34335;51.566;6.994;2023-04-15T10:53:26;3.42;;;1.65;;
48552;SDS011;34335;51.566;6.994;2023-04-15T10:55:53;5.85;;;2.10;;
48552;SDS011;34335;51.566;6.994;2023-04-15T10:58:18;4.03;;;1.70;;
48552;SDS011;34335;51.566;6.994;2023-04-15T11:00:52;2.63;;;1.20;;
48552;SDS011;34335;51.566;6.994;2023-04-15T11:03:33;5.25;;;2.15;;
48552;SDS011;34335;51.566;6.994;2023-04-15T11:06:01;3.78;;;1.38;;
48552;SDS011;34335;51.566;6.994;2023-04-15T11:09:14;3.55;;;1.63;;
48552;SDS011;34335;51.566;6.994;2023-04-15T11:11:43;2.97;;;1.52;;
48552;SDS011;34335;51.566;6.994;2023-04-15T11:14:28;3.38;;;1.35;;
48552;SDS011;34335;51.566;6.994;2023-04-15T11:16:54;2.67;;;1.42;;
48552;SDS011;34335;51.566;6.994;2023-04-15T11:19:19;3.13;;;1.83;;
48552;SDS011;34335;51.566;6.994;2023-04-15T11:21:44;3.33;;;1.60;;
48552;SDS011;34335;51.566;6.994;2023-04-15T11:24:09;2.72;;;1.55;;
48552;SDS011;34335;51.566;6.994;2023-04-15T11:26:35;4.37;;;1.90;;
48552;SDS011;34335;51.566;6.994;2023-04-15T11:29:00;6.10;;;2.10;;
48552;SDS011;34335;51.566;6.994;2023-04-15T11:31:26;2.22;;;1.40;;
48552;SDS011;34335;51.566;6.994;2023-04-15T11:33:56;2.95;;;1.52;;
48552;SDS011;34335;51.566;6.994;2023-04-15T11:36:26;3.92;;;1.90;;
48552;SDS011;34335;51.566;6.994;2023-04-15T11:39:11;2.00;;;1.10;;
48552;SDS011;34335;51.566;6.994;2023-04-15T11:41:37;3.42;;;1.15;;
48552;SDS011;34335;51.566;6.994;2023-04-15T11:44:02;1.95;;;0.95;;
48552;SDS011;34335;51.566;6.994;2023-04-15T11:46:40;3.60;;;1.48;;
48552;SDS011;34335;51.566;6.994;2023-04-15T11:49:06;3.03;;;1.67;;
48552;SDS011;34335;51.566;6.994;2023-04-15T11:51:32;2.47;;;1.43;;
48552;SDS011;34335;51.566;6.994;2023-04-15T11:53:58;3.03;;;1.25;;
48552;SDS011;34335;51.566;6.994;2023-04-15T11:56:24;3.33;;;1.40;;
48552;SDS011;34335;51.566;6.994;2023-04-15T11:58:56;3.90;;;1.95;;
48552;SDS011;34335;51.566;6.994;2023-04-15T12:01:35;3.22;;;1.88;;
48552;SDS011;34335;51.566;6.994;2023-04-15T12:04:13;1.40;;;1.10;;
48552;SDS011;34335;51.566;6.994;2023-04-15T12:06:41;2.78;;;1.10;;
48552;SDS011;34335;51.566;6.994;2023-04-15T12:09:10;2.63;;;1.20;;
48552;SDS011;34335;51.566;6.994;2023-04-15T12:14:26;4.32;;;0.95;;
48552;SDS011;34335;51.566;6.994;2023-04-15T12:16:53;3.72;;;1.50;;
48552;SDS011;34335;51.566;6.994;2023-04-15T12:19:36;4.82;;;1.50;;
48552;SDS011;34335;51.566;6.994;2023-04-15T12:22:04;3.33;;;1.60;;
48552;SDS011;34335;51.566;6.994;2023-04-15T12:24:31;3.38;;;1.88;;
48552;SDS011;34335;51.566;6.994;2023-04-15T12:27:00;3.15;;;1.40;;
48552;SDS011;34335;51.566;6.994;2023-04-15T12:29:30;6.43;;;1.95;;
48552;SDS011;34335;51.566;6.994;2023-04-15T12:32:06;3.33;;;1.38;;
48552;SDS011;34335;51.566;6.994;2023-04-15T12:34:42;4.63;;;1.70;;
48552;SDS011;34335;51.566;6.994;2023-04-15T12:37:09;3.78;;;1.35;;
48552;SDS011;34335;51.566;6.994;2023-04-15T12:39:40;1.55;;;0.90;;
48552;SDS011;34335;51.566;6.994;2023-04-15T12:42:07;5.07;;;1.73;;
48552;SDS011;34335;51.566;6.994;2023-04-15T12:44:34;1.80;;;1.20;;
48552;SDS011;34335;51.566;6.994;2023-04-15T12:47:00;3.67;;;1.50;;
48552;SDS011;34335;51.566;6.994;2023-04-15T12:49:25;5.40;;;1.70;;
48552;SDS011;34335;51.566;6.994;2023-04-15T12:51:52;4.72;;;1.88;;
48552;SDS011;34335;51.566;6.994;2023-04-15T12:54:21;3.47;;;1.55;;
48552;SDS011;34335;51.566;6.994;2023-04-15T12:56:47;4.05;;;1.60;;
48552;SDS011;34335;51.566;6.994;2023-04-15T12:59:14;4.00;;;1.52;;
48552;SDS011;34335;51.566;6.994;2023-04-15T13:01:41;4.30;;;1.38;;
48552;SDS011;34335;51.566;6.994;2023-04-15T13:04:07;4.28;;;1.77;;
48552;SDS011;34335;51.566;6.994;2023-04-15T13:06:32;1.95;;;1.27;;
48552;SDS011;34335;51.566;6.994;2023-04-15T13:08:58;3.47;;;1.60;;
48552;SDS011;34335;51.566;6.994;2023-04-15T13:11:25;3.67;;;2.20;;
48552;SDS011;34335;51.566;6.994;2023-04-15T13:13:51;3.33;;;1.77;;
48552;SDS011;34335;51.566;6.994;2023-04-15T13:16:16;3.13;;;1.95;;
48552;SDS011;34335;51.566;6.994;2023-04-15T13:18:42;3.17;;;1.50;;
48552;SDS011;34335;51.566;6.994;2023-04-15T13:21:07;1.85;;;1.10;;
48552;SDS011;34335;51.566;6.994;2023-04-15T13:23:34;2.17;;;1.00;;
48552;SDS011;34335;51.566;6.994;2023-04-15T13:26:00;3.85;;;1.45;;
48552;SDS011;34335;51.566;6.994;2023-04-15T13:28:25;3.03;;;1.45;;
48552;SDS011;34335;51.566;6.994;2023-04-15T13:30:51;2.15;;;1.20;;
48552;SDS011;34335;51.566;6.994;2023-04-15T13:33:16;2.30;;;1.17;;
48552;SDS011;34335;51.566;6.994;2023-04-15T13:35:42;4.15;;;1.27;;
48552;SDS011;34335;51.566;6.994;2023-04-15T13:38:07;7.53;;;1.40;;
48552;SDS011;34335;51.566;6.994;2023-04-15T13:40:32;3.03;;;1.52;;
48552;SDS011;34335;51.566;6.994;2023-04-15T13:42:58;2.30;;;1.35;;
48552;SDS011;34335;51.566;6.994;2023-04-15T13:45:24;3.20;;;1.63;;
48552;SDS011;34335;51.566;6.994;2023-04-15T13:47:50;3.30;;;1.33;;
48552;SDS011;34335;51.566;6.994;2023-04-15T13:50:15;2.25;;;0.98;;
48552;SDS011;34335;51.566;6.994;2023-04-15T13:52:40;2.17;;;1.33;;
48552;SDS011;34335;51.566;6.994;2023-04-15T13:55:06;2.03;;;1.27;;
48552;SDS011;34335;51.566;6.994;2023-04-15T13:57:31;4.15;;;1.25;;
48552;SDS011;34335;51.566;6.994;2023-04-15T13:59:57;4.00;;;1.80;;
48552;SDS011;34335;51.566;6.994;2023-04-15T14:02:22;2.00;;;0.93;;
48552;SDS011;34335;51.566;6.994;2023-04-15T14:04:47;6.07;;;1.25;;
48552;SDS011;34335;51.566;6.994;2023-04-15T14:07:13;1.67;;;0.90;;
48552;SDS011;34335;51.566;6.994;2023-04-15T14:09:38;2.00;;;1.05;;
48552;SDS011;34335;51.566;6.994;2023-04-15T14:12:03;3.63;;;1.52;;
48552;SDS011;34335;51.566;6.994;2023-04-15T14:14:29;2.20;;;1.30;;
48552;SDS011;34335;51.566;6.994;2023-04-15T14:16:54;2.20;;;1.20;;
48552;SDS011;34335;51.566;6.994;2023-04-15T14:19:20;2.92;;;1.33;;
48552;SDS011;34335;51.566;6.994;2023-04-15T14:21:46;1.15;;;0.77;;
48552;SDS011;34335;51.566;6.994;2023-04-15T14:24:11;6.05;;;1.65;;
48552;SDS011;34335;51.566;6.994;2023-04-15T14:26:36;2.15;;;1.13;;
48552;SDS011;34335;51.566;6.994;2023-04-15T14:29:02;2.92;;;1.13;;
48552;SDS011;34335;51.566;6.994;2023-04-15T14:31:27;3.42;;;1.50;;
48552;SDS011;34335;51.566;6.994;2023-04-15T14:33:52;2.53;;;1.40;;
48552;SDS011;34335;51.566;6.994;2023-04-15T14:36:18;3.15;;;1.58;;
48552;SDS011;34335;51.566;6.994;2023-04-15T14:38:43;2.58;;;1.10;;
48552;SDS011;34335;51.566;6.994;2023-04-15T14:41:08;2.17;;;1.00;;
48552;SDS011;34335;51.566;6.994;2023-04-15T14:43:34;3.35;;;1.90;;
48552;SDS011;34335;51.566;6.994;2023-04-15T14:46:00;3.08;;;1.50;;
48552;SDS011;34335;51.566;6.994;2023-04-15T14:48:25;3.72;;;1.48;;
48552;SDS011;34335;51.566;6.994;2023-04-15T14:50:51;2.97;;;1.58;;
48552;SDS011;34335;51.566;6.994;2023-04-15T14:53:17;2.58;;;1.70;;
48552;SDS011;34335;51.566;6.994;2023-04-15T14:55:42;2.40;;;1.30;;
48552;SDS011;34335;51.566;6.994;2023-04-15T14:58:08;3.22;;;1.55;;